createdAt,value
2022-10-13T00:01:57.752Z,99116.66
2022-10-13T00:07:19.446Z,99120.22
2022-10-13T00:12:41.218Z,99122.81
2022-10-13T00:18:02.903Z,99118.19
2022-10-13T00:23:24.895Z,99130.63
2022-10-13T00:28:52.040Z,99134.59
2022-10-13T00:34:14.384Z,99127.88
2022-10-13T00:39:37.159Z,99120.19
2022-10-13T00:45:19.984Z,99120.28
2022-10-13T00:50:42.874Z,99111.84
2022-10-13T00:56:07.787Z,99113.16
2022-10-13T01:01:29.735Z,99115.78
2022-10-13T01:06:52.788Z,99111.84
2022-10-13T01:12:36.032Z,99107.13
2022-10-13T01:18:39.298Z,99114.63
2022-10-13T01:24:22.622Z,99113.31
2022-10-13T01:30:08.528Z,99102.06
2022-10-13T01:35:40.795Z,99105.09
2022-10-13T01:41:13.790Z,99103.72
2022-10-13T01:46:38.256Z,99095.66
2022-10-13T01:52:04.396Z,99091.81
2022-10-13T01:57:31.172Z,99088.63
2022-10-13T02:03:11.324Z,99085.88
2022-10-13T02:08:43.904Z,99087.50
2022-10-13T02:14:29.742Z,99078.88
2022-10-13T02:19:51.448Z,99078.53
2022-10-13T02:25:13.500Z,99083.97
2022-10-13T02:30:35.812Z,99086.09
2022-10-13T02:35:57.492Z,99088.53
2022-10-13T02:41:19.179Z,99081.28
2022-10-13T02:46:41.662Z,99080.25
2022-10-13T02:52:03.330Z,99078.25
2022-10-13T02:57:24.994Z,99077.34
2022-10-13T03:02:46.664Z,99083.69
2022-10-13T03:08:08.332Z,99079.97
2022-10-13T03:13:30.137Z,99073.97
2022-10-13T03:18:51.786Z,99070.38
2022-10-13T03:24:13.611Z,99061.19
2022-10-13T03:29:35.329Z,99053.16
2022-10-13T03:34:57.066Z,99049.03
2022-10-13T03:40:18.816Z,99042.94
2022-10-13T03:45:40.501Z,99028.19
2022-10-13T03:51:13.689Z,99028.13
2022-10-13T03:56:35.804Z,99038.91
2022-10-13T04:01:57.522Z,99039.09
2022-10-13T04:07:19.240Z,99046.28
2022-10-13T04:12:40.924Z,99053.31
2022-10-13T04:18:02.640Z,99049.47
2022-10-13T04:23:24.600Z,99042.06
2022-10-13T04:28:48.463Z,99031.50
2022-10-13T04:34:11.206Z,99040.75
2022-10-13T04:39:33.383Z,99045.19
2022-10-13T04:44:55.056Z,99042.63
2022-10-13T04:50:17.280Z,99035.44
2022-10-13T04:55:38.965Z,99026.16
2022-10-13T05:01:01.415Z,99020.91
2022-10-13T05:06:26.186Z,99003.47
2022-10-13T05:11:47.904Z,99003.47
2022-10-13T05:17:09.622Z,99019.41
2022-10-13T05:22:31.425Z,99021.47
2022-10-13T05:27:53.173Z,99023.06
2022-10-13T05:33:14.864Z,99022.69
2022-10-13T05:38:36.745Z,99024.63
2022-10-13T05:44:02.137Z,99025.38
2022-10-13T05:49:23.908Z,99038.16
2022-10-13T05:54:48.483Z,99042.66
2022-10-13T06:00:19.729Z,99031.41
2022-10-13T06:05:43.167Z,99010.59
2022-10-13T06:11:05.707Z,99015.91
2022-10-13T06:16:27.469Z,99010.13
2022-10-13T06:21:49.220Z,99010.19
2022-10-13T06:27:11.270Z,99005.78
2022-10-13T06:32:33.144Z,99018.06
2022-10-13T06:37:54.947Z,99033.81
2022-10-13T06:43:16.669Z,99027.66
2022-10-13T06:48:38.722Z,99023.69
2022-10-13T06:54:00.437Z,99021.06
2022-10-13T06:59:23.258Z,99009.53
2022-10-13T07:04:46.946Z,99011.22
2022-10-13T07:10:09.104Z,99017.31
2022-10-13T07:15:31.069Z,99018.72
2022-10-13T07:20:52.795Z,99019.66
2022-10-13T07:26:16.269Z,99019.28
2022-10-13T07:31:37.961Z,99020.41
2022-10-13T07:36:59.624Z,99012.53
2022-10-13T07:42:21.301Z,99013.38
2022-10-13T07:47:43.081Z,99018.53
2022-10-13T07:53:05.564Z,99015.44
2022-10-13T07:58:27.490Z,99007.88
2022-10-13T08:03:50.542Z,99004.50
2022-10-13T08:09:12.733Z,99008.94
2022-10-13T08:14:34.629Z,99000.53
2022-10-13T08:19:56.428Z,98997.00
2022-10-13T08:25:18.192Z,98976.81
2022-10-13T08:30:39.924Z,98980.19
2022-10-13T08:36:01.713Z,98979.13
2022-10-13T08:41:26.268Z,98969.59
2022-10-13T08:47:09.890Z,98981.09
2022-10-13T08:52:47.911Z,98973.75
2022-10-13T08:58:19.208Z,98968.00
2022-10-13T09:03:49.801Z,98966.41
2022-10-13T09:09:14.212Z,98969.47
2022-10-13T09:14:38.655Z,98961.16
2022-10-13T09:20:07.519Z,98967.72
2022-10-13T09:25:29.411Z,98971.63
2022-10-13T09:31:13.919Z,98964.97
2022-10-13T09:36:37.622Z,98966.44
2022-10-13T09:42:20.399Z,98977.59
2022-10-13T09:47:54.681Z,98975.81
2022-10-13T09:53:32.062Z,98969.09
2022-10-13T09:59:10.239Z,98962.03
2022-10-13T10:04:37.623Z,98957.72
2022-10-13T10:10:18.493Z,98959.28
2022-10-13T10:15:53.834Z,98949.31
2022-10-13T10:21:31.263Z,98954.34
2022-10-13T10:27:01.516Z,98954.22
2022-10-13T10:32:28.678Z,98953.78
2022-10-13T10:38:18.063Z,98939.69
2022-10-13T10:43:55.224Z,98935.13
2022-10-13T10:49:35.421Z,98929.66
2022-10-13T10:55:11.380Z,98930.25
2022-10-13T11:00:42.160Z,98923.50
2022-10-13T11:06:21.265Z,98912.88
2022-10-13T11:11:43.027Z,98900.63
2022-10-13T11:17:07.454Z,98894.94
2022-10-13T11:22:30.980Z,98886.78
2022-10-13T11:27:52.682Z,98890.88
2022-10-13T11:33:33.268Z,98888.50
2022-10-13T11:39:19.861Z,98879.91
2022-10-13T11:44:55.652Z,98857.13
2022-10-13T11:50:28.732Z,98857.97
2022-10-13T11:56:01.434Z,98846.53
2022-10-13T12:01:23.158Z,98842.59
2022-10-13T12:06:48.434Z,98838.19
2022-10-13T12:12:16.690Z,98823.00
2022-10-13T12:17:38.915Z,98813.66
2022-10-13T12:23:00.799Z,98810.19
2022-10-13T12:28:23.888Z,98803.63
2022-10-13T12:33:55.794Z,98792.84
2022-10-13T12:39:18.806Z,98786.63
2022-10-13T12:44:41.023Z,98786.38
2022-10-13T12:50:21.595Z,98779.66
2022-10-13T12:55:56.277Z,98769.00
2022-10-13T13:01:27.233Z,98765.28
2022-10-13T13:07:03.772Z,98757.22
2022-10-13T13:12:27.882Z,98771.97
2022-10-13T13:17:58.813Z,98775.13
2022-10-13T13:23:21.897Z,98763.72
2022-10-13T13:28:55.396Z,98760.13
2022-10-13T13:34:18.842Z,98748.22
2022-10-13T13:39:42.834Z,98754.22
2022-10-13T13:45:04.853Z,98752.09
2022-10-13T13:50:32.254Z,98749.66
2022-10-13T13:55:54.037Z,98748.13
2022-10-13T14:01:16.089Z,98746.91
2022-10-13T14:06:38.025Z,98743.78
2022-10-13T14:11:59.946Z,98741.28
2022-10-13T14:17:21.617Z,98737.81
2022-10-13T14:22:43.372Z,98725.44
2022-10-13T14:28:05.104Z,98734.31
2022-10-13T14:33:26.806Z,98722.91
2022-10-13T14:38:48.498Z,98730.47
2022-10-13T14:44:12.241Z,98730.72
2022-10-13T14:49:34.009Z,98730.47
2022-10-13T14:54:55.698Z,98724.63
2022-10-13T15:00:17.568Z,98730.47
2022-10-13T15:05:39.350Z,98735.91
2022-10-13T15:11:02.835Z,98740.31
2022-10-13T15:16:27.949Z,98735.28
2022-10-13T15:21:50.013Z,98740.47
2022-10-13T15:27:11.733Z,98747.28
2022-10-13T15:32:33.445Z,98745.25
2022-10-13T15:37:55.230Z,98751.97
2022-10-13T15:43:18.000Z,98750.47
2022-10-13T15:48:39.876Z,98748.69
2022-10-13T15:54:01.529Z,98750.94
2022-10-13T15:59:25.382Z,98746.38
2022-10-13T16:04:47.073Z,98755.88
2022-10-13T16:10:10.696Z,98751.09
2022-10-13T16:15:32.417Z,98750.94
2022-10-13T16:20:54.077Z,98751.31
2022-10-13T16:26:17.414Z,98773.47
2022-10-13T16:31:39.251Z,98778.22
2022-10-13T16:37:00.963Z,98761.69
2022-10-13T16:42:22.702Z,98769.16
2022-10-13T16:47:44.519Z,98761.50
2022-10-13T16:53:06.221Z,98766.63
2022-10-13T16:58:28.105Z,98762.41
2022-10-13T17:03:50.825Z,98744.72
2022-10-13T17:09:12.622Z,98756.38
2022-10-13T17:14:34.435Z,98767.97
2022-10-13T17:19:56.275Z,98764.41
2022-10-13T17:25:17.961Z,98758.50
2022-10-13T17:30:39.825Z,98756.38
2022-10-13T17:36:04.844Z,98753.88
2022-10-13T17:41:26.562Z,98753.47
2022-10-13T17:46:49.928Z,98759.81
2022-10-13T17:52:11.682Z,98764.06
2022-10-13T17:57:33.378Z,98760.81
2022-10-13T18:02:55.220Z,98765.78
2022-10-13T18:08:17.416Z,98770.53
2022-10-13T18:13:39.264Z,98778.75
2022-10-13T18:19:01.256Z,98773.16
2022-10-13T18:24:24.630Z,98768.34
2022-10-13T18:29:46.293Z,98772.00
2022-10-13T18:35:08.370Z,98770.16
2022-10-13T18:40:30.281Z,98765.13
2022-10-13T18:45:51.998Z,98776.50
2022-10-13T18:51:16.273Z,98771.31
2022-10-13T18:56:38.298Z,98759.53
2022-10-13T19:01:59.962Z,98762.69
2022-10-13T19:07:21.920Z,98770.16
2022-10-13T19:12:43.858Z,98760.38
2022-10-13T19:18:06.224Z,98759.13
2022-10-13T19:23:28.025Z,98758.28
2022-10-13T19:28:54.142Z,98765.97
2022-10-13T19:34:15.926Z,98763.03
2022-10-13T19:39:38.428Z,98770.28
2022-10-13T19:45:02.137Z,98768.69
2022-10-13T19:50:23.833Z,98769.66
2022-10-13T19:55:47.649Z,98779.22
2022-10-13T20:01:09.458Z,98771.31
2022-10-13T20:06:31.351Z,98779.00
2022-10-13T20:11:53.041Z,98785.53
2022-10-13T20:17:14.736Z,98781.44
2022-10-13T20:22:36.517Z,98788.91
2022-10-13T20:27:58.275Z,98790.53
2022-10-13T20:33:20.043Z,98793.91
2022-10-13T20:38:41.830Z,98794.94
2022-10-13T20:44:03.590Z,98805.06
2022-10-13T20:49:25.273Z,98809.34
2022-10-13T20:54:46.974Z,98801.88
2022-10-13T21:00:09.608Z,98794.72
2022-10-13T21:05:32.241Z,98789.88
2022-10-13T21:10:54.101Z,98788.13
2022-10-13T21:16:24.162Z,98787.38
2022-10-13T21:21:46.663Z,98795.16
2022-10-13T21:27:08.403Z,98789.50
2022-10-13T21:32:30.473Z,98794.53
2022-10-13T21:37:52.182Z,98796.13
2022-10-13T21:43:13.893Z,98795.38
2022-10-13T21:48:36.488Z,98799.16
2022-10-13T21:54:00.835Z,98798.22
2022-10-13T21:59:22.541Z,98799.16
2022-10-13T22:04:44.245Z,98800.00
2022-10-13T22:10:06.019Z,98800.63
2022-10-13T22:15:27.684Z,98802.31
2022-10-13T22:20:49.347Z,98802.41
2022-10-13T22:26:11.983Z,98802.53
2022-10-13T22:31:34.365Z,98800.00
2022-10-13T22:36:56.042Z,98798.19
2022-10-13T22:42:17.717Z,98792.94
2022-10-13T22:47:39.402Z,98793.50
2022-10-13T22:53:01.089Z,98805.91
2022-10-13T22:58:22.814Z,98794.13
2022-10-13T23:03:48.303Z,98789.16
2022-10-13T23:09:12.764Z,98792.00
2022-10-13T23:14:34.418Z,98791.38
2022-10-13T23:19:56.192Z,98783.38
2022-10-13T23:25:17.841Z,98782.03
2022-10-13T23:30:39.519Z,98785.72
2022-10-13T23:36:02.588Z,98782.84
2022-10-13T23:41:24.320Z,98783.16
2022-10-13T23:46:45.976Z,98781.69
2022-10-13T23:52:10.961Z,98783.91
2022-10-13T23:57:32.940Z,98778.75
